Time;durP1;ratioP1;P1;durP2;ratioP2;P2;SDS_P1;SDS_P2;PMS_P1;PMS_P2;Temp;Humidity;BMP_temperature;BMP_pressure;BME280_temperature;BME280_humidity;BME280_pressure;Samples;Min_cycle;Max_cycle;Signal;HPM_P1;HPM_P2
2021/04/14 00:01:49;;;;;;;0.32;0.20;;;5.80;99.90;;;;;;4849130;29;20037;-60
2021/04/14 00:04:16;;;;;;;0.65;0.20;;;5.80;99.90;;;;;;4853531;29;20064;-60
2021/04/14 00:06:47;;;;;;;0.28;0.10;;;5.80;99.90;;;;;;4845752;29;20042;-60
2021/04/14 00:09:14;;;;;;;0.20;0.00;;;5.70;99.90;;;;;;4845637;29;20042;-60
2021/04/14 00:11:40;;;;;;;0.70;0.10;;;5.70;99.90;;;;;;4828980;29;20073;-60
2021/04/14 00:14:09;;;;;;;0.30;0.00;;;5.70;99.90;;;;;;4848651;29;20125;-60
2021/04/14 00:16:35;;;;;;;0.40;0.10;;;5.70;99.90;;;;;;4849720;29;20045;-60
2021/04/14 00:19:03;;;;;;;0.45;0.00;;;5.70;99.90;;;;;;4852532;29;20523;-60
2021/04/14 00:21:30;;;;;;;0.20;0.00;;;5.60;99.90;;;;;;4851238;29;20313;-60
2021/04/14 00:23:58;;;;;;;0.40;0.05;;;5.60;99.90;;;;;;4831926;29;20068;-60
2021/04/14 00:26:25;;;;;;;0.00;0.00;;;5.60;99.90;;;;;;4845174;29;20064;-60
2021/04/14 00:28:51;;;;;;;0.30;0.10;;;5.60;99.90;;;;;;4842980;29;20489;-60
2021/04/14 00:31:18;;;;;;;0.15;0.00;;;5.60;99.90;;;;;;4849574;29;20175;-60
2021/04/14 00:33:45;;;;;;;0.30;0.00;;;5.60;99.90;;;;;;4847995;29;20045;-60
2021/04/14 00:36:12;;;;;;;0.95;0.10;;;5.60;99.90;;;;;;4840548;29;20083;-60
2021/04/14 00:38:40;;;;;;;0.17;0.00;;;5.70;99.90;;;;;;4830794;29;20058;-60
2021/04/14 00:41:14;;;;;;;2.03;0.10;;;5.60;99.90;;;;;;4849327;29;20052;-60
2021/04/14 00:43:42;;;;;;;0.20;0.03;;;5.60;99.90;;;;;;4855474;29;20038;-59
2021/04/14 00:46:09;;;;;;;0.22;0.10;;;5.50;99.90;;;;;;4841390;29;20042;-60
2021/04/14 00:48:36;;;;;;;0.68;0.10;;;5.50;99.90;;;;;;4841334;29;20050;-60
2021/04/14 00:51:05;;;;;;;0.40;0.15;;;5.50;99.90;;;;;;4837011;29;20050;-60
2021/04/14 00:53:32;;;;;;;0.95;0.25;;;5.50;99.90;;;;;;4835610;29;20053;-60
2021/04/14 00:55:59;;;;;;;0.82;0.30;;;5.50;99.90;;;;;;4849322;29;20045;-60
2021/04/14 00:58:25;;;;;;;1.10;0.40;;;5.50;99.90;;;;;;4830943;29;20050;-60
2021/04/14 01:00:53;;;;;;;0.80;0.35;;;5.50;99.90;;;;;;4853875;29;20485;-60
2021/04/14 01:03:31;;;;;;;2.40;0.90;;;5.50;99.90;;;;;;4830803;29;20049;-60
2021/04/14 01:06:00;;;;;;;2.83;0.85;;;5.50;99.90;;;;;;4857196;29;20053;-60
2021/04/14 01:08:26;;;;;;;2.75;0.95;;;5.50;99.90;;;;;;4845153;29;20446;-60
2021/04/14 01:10:53;;;;;;;4.50;1.85;;;5.50;99.90;;;;;;4851597;29;20081;-60
2021/04/14 01:13:21;;;;;;;5.22;2.75;;;5.40;99.90;;;;;;4847643;29;20049;-60
2021/04/14 01:15:50;;;;;;;4.97;2.53;;;5.40;99.90;;;;;;4830220;29;20109;-60
2021/04/14 01:18:24;;;;;;;4.50;2.38;;;5.40;99.90;;;;;;4850145;29;20041;-60
2021/04/14 01:20:53;;;;;;;4.82;2.58;;;5.40;99.90;;;;;;4843322;29;20057;-60
2021/04/14 01:23:20;;;;;;;6.72;2.90;;;5.40;99.90;;;;;;4850136;29;20098;-61
2021/04/14 01:25:47;;;;;;;4.97;2.38;;;5.50;99.90;;;;;;4842195;29;20102;-60
2021/04/14 01:28:20;;;;;;;6.25;2.90;;;5.50;99.90;;;;;;4849626;29;20077;-60
2021/04/14 01:30:46;;;;;;;;;;;5.50;99.90;;;;;;4849794;29;20049;-60
2021/04/14 01:33:15;;;;;;;3.80;1.40;;;5.60;99.90;;;;;;4838052;29;19928;-60
2021/04/14 01:35:42;;;;;;;3.03;1.10;;;5.60;99.90;;;;;;4840120;29;20041;-60
2021/04/14 01:38:09;;;;;;;2.05;0.65;;;5.60;99.90;;;;;;4850331;29;20064;-60
2021/04/14 01:40:36;;;;;;;1.75;0.50;;;5.60;99.90;;;;;;4846477;29;20049;-60
2021/04/14 01:43:04;;;;;;;2.28;0.88;;;5.70;99.90;;;;;;4833386;29;20042;-60
2021/04/14 01:45:36;;;;;;;1.10;0.40;;;5.70;99.90;;;;;;4837708;29;20125;-59
2021/04/14 01:48:05;;;;;;;1.10;0.30;;;5.60;99.90;;;;;;4845155;29;20046;-59
2021/04/14 01:50:32;;;;;;;0.80;0.28;;;5.60;99.90;;;;;;4849108;29;20087;-60
2021/04/14 01:52:59;;;;;;;1.83;0.30;;;5.60;99.90;;;;;;4826418;29;20439;-60
2021/04/14 01:55:27;;;;;;;0.30;0.10;;;5.60;99.90;;;;;;4844027;29;20041;-60
2021/04/14 01:57:54;;;;;;;0.70;0.10;;;5.50;99.90;;;;;;4851594;29;20053;-60
2021/04/14 02:00:29;;;;;;;0.65;0.10;;;5.60;99.90;;;;;;4846567;29;20064;-60
2021/04/14 02:02:55;;;;;;;0.60;0.10;;;5.60;99.90;;;;;;4843845;29;20052;-60
2021/04/14 02:05:25;;;;;;;0.77;0.03;;;5.60;99.90;;;;;;4851352;29;20049;-60
2021/04/14 02:07:52;;;;;;;0.30;0.10;;;5.60;99.90;;;;;;4852755;29;20479;-60
2021/04/14 02:10:19;;;;;;;0.20;0.00;;;5.60;99.90;;;;;;4845261;29;20462;-60
2021/04/14 02:12:47;;;;;;;0.65;0.10;;;5.60;99.90;;;;;;4856767;29;20057;-59
2021/04/14 02:15:17;;;;;;;0.20;0.00;;;5.60;99.90;;;;;;4851374;29;20137;-60
2021/04/14 02:17:43;;;;;;;0.88;0.20;;;5.50;99.90;;;;;;4833887;29;20053;-60
2021/04/14 02:20:11;;;;;;;0.52;0.10;;;5.50;99.90;;;;;;4851297;29;21946;-60
2021/04/14 02:22:38;;;;;;;0.93;0.30;;;5.50;99.90;;;;;;4846073;29;20037;-60
2021/04/14 02:25:07;;;;;;;1.50;0.30;;;5.60;99.90;;;;;;4848239;29;20054;-60
2021/04/14 02:27:34;;;;;;;1.00;0.10;;;5.50;99.90;;;;;;4851188;29;20528;-60
2021/04/14 02:30:00;;;;;;;1.17;0.30;;;5.50;99.90;;;;;;4825682;29;20118;-60
2021/04/14 02:32:27;;;;;;;0.80;0.40;;;5.50;99.90;;;;;;4833215;29;20065;-60
2021/04/14 02:34:54;;;;;;;0.90;0.28;;;5.40;99.90;;;;;;4838987;29;20502;-60
2021/04/14 02:37:20;;;;;;;1.50;0.55;;;5.50;99.90;;;;;;4843122;29;20045;-60
2021/04/14 02:39:47;;;;;;;5.03;1.63;;;5.50;99.90;;;;;;4847190;29;20037;-61
2021/04/14 02:42:13;;;;;;;3.90;1.23;;;5.60;99.90;;;;;;4841818;29;20353;-60
2021/04/14 02:44:40;;;;;;;4.03;1.65;;;5.50;99.90;;;;;;4850157;29;20053;-60
2021/04/14 02:47:06;;;;;;;2.63;1.05;;;5.50;99.90;;;;;;4849036;29;20052;-60
2021/04/14 02:49:33;;;;;;;2.30;0.70;;;5.50;99.90;;;;;;4842334;29;20132;-60
2021/04/14 02:51:59;;;;;;;1.15;0.68;;;5.50;99.90;;;;;;4847038;29;20050;-60
2021/04/14 02:54:26;;;;;;;0.80;0.40;;;5.50;99.90;;;;;;4846572;29;20195;-60
2021/04/14 02:56:53;;;;;;;1.50;0.45;;;5.50;99.90;;;;;;4845053;29;20052;-60
2021/04/14 02:59:19;;;;;;;0.93;0.25;;;5.50;99.90;;;;;;4838847;29;20053;-60
2021/04/14 03:01:46;;;;;;;0.47;0.30;;;5.50;99.90;;;;;;4848061;29;20056;-60
2021/04/14 03:04:12;;;;;;;1.00;0.30;;;5.50;99.90;;;;;;4828908;29;20463;-60
2021/04/14 03:06:39;;;;;;;0.73;0.20;;;5.40;99.90;;;;;;4849047;29;20832;-60
2021/04/14 03:09:07;;;;;;;0.40;0.22;;;5.40;99.90;;;;;;4841577;29;20478;-60
2021/04/14 03:11:33;;;;;;;0.30;0.03;;;5.40;99.90;;;;;;4834041;29;20058;-60
2021/04/14 03:14:00;;;;;;;0.30;0.10;;;5.40;99.90;;;;;;4848665;29;20057;-60
2021/04/14 03:16:27;;;;;;;0.40;0.10;;;5.40;99.90;;;;;;4850392;29;20566;-60
2021/04/14 03:18:53;;;;;;;0.30;0.20;;;5.50;99.90;;;;;;4844954;29;20068;-60
2021/04/14 03:21:20;;;;;;;1.65;0.00;;;5.40;99.90;;;;;;4839188;29;20046;-60
2021/04/14 03:23:47;;;;;;;0.57;0.10;;;5.50;99.90;;;;;;4851841;29;20045;-60
2021/04/14 03:26:14;;;;;;;0.43;0.10;;;5.60;99.90;;;;;;4831432;29;20110;-60
2021/04/14 03:28:40;;;;;;;1.00;0.30;;;5.50;99.90;;;;;;4845038;29;20034;-61
2021/04/14 03:31:08;;;;;;;0.30;0.10;;;5.60;99.90;;;;;;4849398;29;20054;-60
2021/04/14 03:33:35;;;;;;;1.08;0.10;;;5.60;99.90;;;;;;4844670;29;20033;-60
2021/04/14 03:36:03;;;;;;;0.30;0.08;;;5.50;99.90;;;;;;4839252;29;20053;-60
2021/04/14 03:38:30;;;;;;;0.35;0.10;;;5.60;99.90;;;;;;4849189;29;20053;-60
2021/04/14 03:40:57;;;;;;;0.80;0.08;;;5.60;99.90;;;;;;4852087;29;20041;-60
2021/04/14 03:43:23;;;;;;;0.22;0.08;;;5.60;99.90;;;;;;4846750;29;20038;-60
2021/04/14 03:45:55;;;;;;;0.43;0.10;;;5.60;99.90;;;;;;4854572;29;20116;-60
2021/04/14 03:48:22;;;;;;;0.60;0.03;;;5.60;99.90;;;;;;4838064;29;20058;-60
2021/04/14 03:50:48;;;;;;;0.43;0.10;;;5.70;99.90;;;;;;4841670;29;20430;-60
2021/04/14 03:53:24;;;;;;;0.63;0.10;;;5.70;99.90;;;;;;4854071;29;20057;-60
2021/04/14 03:55:58;;;;;;;0.88;0.15;;;5.70;99.90;;;;;;4853282;29;20057;-60
2021/04/14 03:58:48;;;;;;;0.55;0.20;;;5.70;99.90;;;;;;4842443;29;20102;-60
2021/04/14 04:01:19;;;;;;;0.73;0.10;;;5.70;99.90;;;;;;4851115;29;20053;-60
2021/04/14 04:03:45;;;;;;;0.47;0.10;;;5.70;99.90;;;;;;4846668;29;20038;-61
2021/04/14 04:06:12;;;;;;;0.35;0.10;;;5.70;99.90;;;;;;4843772;29;20054;-60
2021/04/14 04:08:38;;;;;;;1.27;0.30;;;5.70;99.90;;;;;;4848090;29;20056;-60
2021/04/14 04:11:05;;;;;;;0.75;0.10;;;5.60;99.90;;;;;;4853236;29;20061;-60
2021/04/14 04:13:33;;;;;;;0.75;0.15;;;5.70;99.90;;;;;;4843665;29;20541;-60
2021/04/14 04:16:00;;;;;;;1.40;0.20;;;5.70;99.90;;;;;;4837751;29;20064;-60
2021/04/14 04:18:27;;;;;;;0.25;0.10;;;5.60;99.90;;;;;;4851224;29;20525;-60
2021/04/14 04:20:54;;;;;;;0.85;0.35;;;5.60;99.90;;;;;;4850276;29;20501;-60
2021/04/14 04:23:21;;;;;;;0.82;0.10;;;5.70;99.90;;;;;;4847954;29;20037;-60
2021/04/14 04:25:47;;;;;;;1.33;0.17;;;5.70;99.90;;;;;;4844684;29;20406;-60
2021/04/14 04:28:14;;;;;;;1.17;0.63;;;5.70;99.90;;;;;;4837570;29;20105;-59
2021/04/14 04:30:41;;;;;;;1.30;0.50;;;5.60;99.90;;;;;;4851872;29;20049;-60
2021/04/14 04:33:07;;;;;;;1.35;0.30;;;5.70;99.90;;;;;;4832178;29;20050;-60
2021/04/14 04:35:34;;;;;;;1.13;0.40;;;5.70;99.90;;;;;;4847930;29;20050;-60
2021/04/14 04:38:01;;;;;;;0.85;0.20;;;5.70;99.90;;;;;;4850871;29;20072;-60
2021/04/14 04:40:28;;;;;;;0.82;0.40;;;5.70;99.90;;;;;;4848255;29;20049;-60
2021/04/14 04:42:55;;;;;;;1.40;0.30;;;5.70;99.90;;;;;;4848374;29;20045;-60
2021/04/14 04:45:25;;;;;;;1.63;0.50;;;5.70;99.90;;;;;;4833362;29;20808;-60
2021/04/14 04:47:52;;;;;;;1.08;0.43;;;5.70;99.90;;;;;;4846081;29;20052;-61
2021/04/14 04:50:20;;;;;;;1.70;0.63;;;5.70;99.90;;;;;;4831716;29;20137;-59
2021/04/14 04:52:46;;;;;;;3.05;1.10;;;5.70;99.90;;;;;;4844370;29;20058;-59
2021/04/14 04:55:13;;;;;;;4.60;1.90;;;5.70;99.90;;;;;;4854824;29;20097;-60
2021/04/14 04:57:40;;;;;;;7.25;3.33;;;5.80;99.90;;;;;;4828220;29;20050;-60
2021/04/14 05:00:08;;;;;;;8.10;4.10;;;5.80;99.90;;;;;;4834289;29;20049;-60
2021/04/14 05:02:34;;;;;;;7.43;4.18;;;5.80;99.90;;;;;;4820148;29;20101;-60
2021/04/14 05:05:01;;;;;;;9.98;4.70;;;5.70;99.90;;;;;;4852808;29;20053;-60
2021/04/14 05:07:27;;;;;;;7.65;4.38;;;5.60;99.90;;;;;;4848815;29;20050;-60
2021/04/14 05:09:54;;;;;;;8.52;3.58;;;5.60;99.90;;;;;;4836727;29;20060;-60
2021/04/14 05:12:20;;;;;;;6.43;2.28;;;5.50;99.90;;;;;;4843390;29;20058;-60
2021/04/14 05:14:47;;;;;;;4.60;1.70;;;5.60;99.90;;;;;;4845304;29;20057;-60
2021/04/14 05:17:13;;;;;;;3.90;0.90;;;5.60;99.90;;;;;;4833084;29;20413;-60
2021/04/14 05:19:40;;;;;;;3.00;0.82;;;5.60;99.90;;;;;;4855710;29;20470;-60
2021/04/14 05:22:07;;;;;;;1.67;0.65;;;5.60;99.90;;;;;;4856301;29;20057;-60
2021/04/14 05:24:34;;;;;;;1.90;0.77;;;5.60;99.90;;;;;;4853369;29;20053;-60
2021/04/14 05:27:01;;;;;;;1.58;0.50;;;5.60;99.90;;;;;;4858390;29;20045;-60
2021/04/14 05:29:27;;;;;;;1.92;0.70;;;5.60;99.90;;;;;;4850850;29;20038;-60
2021/04/14 05:31:54;;;;;;;1.83;0.65;;;5.70;99.90;;;;;;4844246;29;20066;-60
2021/04/14 05:34:20;;;;;;;2.08;0.50;;;5.70;99.90;;;;;;4847830;29;20758;-60
2021/04/14 05:36:47;;;;;;;1.58;0.60;;;5.70;99.90;;;;;;4827541;29;20050;-60
2021/04/14 05:39:14;;;;;;;1.75;0.80;;;5.80;99.90;;;;;;4849702;29;20046;-60
2021/04/14 05:41:46;;;;;;;2.08;0.77;;;5.80;99.90;;;;;;4845619;29;20052;-60
2021/04/14 05:44:12;;;;;;;1.65;0.70;;;5.90;99.90;;;;;;4847902;29;20074;-60
2021/04/14 05:46:39;;;;;;;1.50;0.50;;;5.60;99.90;;;;;;4829008;29;20119;-60
2021/04/14 05:49:06;;;;;;;2.38;0.90;;;5.70;99.90;;;;;;4830814;29;20053;-60
2021/04/14 05:51:33;;;;;;;1.75;0.63;;;5.90;99.90;;;;;;4841070;29;20378;-61
2021/04/14 05:54:00;;;;;;;1.48;0.70;;;5.90;99.90;;;;;;4833707;29;20409;-60
2021/04/14 05:56:29;;;;;;;1.67;0.80;;;5.90;99.90;;;;;;4851546;29;20056;-60
2021/04/14 05:58:56;;;;;;;2.75;0.68;;;5.90;99.90;;;;;;4833243;29;20045;-60
2021/04/14 06:01:25;;;;;;;1.95;0.80;;;6.00;99.90;;;;;;4845537;29;20050;-60
2021/04/14 06:03:52;;;;;;;1.83;0.73;;;6.00;99.90;;;;;;4836513;29;20049;-62
2021/04/14 06:06:20;;;;;;;3.03;0.73;;;6.00;99.90;;;;;;4845250;29;20042;-62
2021/04/14 06:08:46;;;;;;;4.50;1.80;;;6.00;99.90;;;;;;4845669;29;20045;-62
2021/04/14 06:11:13;;;;;;;2.83;0.90;;;6.00;99.90;;;;;;4846219;29;20109;-63
2021/04/14 06:13:40;;;;;;;1.55;0.60;;;6.00;99.90;;;;;;4825201;29;20045;-62
2021/04/14 06:16:09;;;;;;;2.67;1.25;;;6.10;99.90;;;;;;4837508;29;20128;-63
2021/04/14 06:18:36;;;;;;;5.63;2.60;;;6.10;99.90;;;;;;4837297;29;20126;-62
2021/04/14 06:21:04;;;;;;;2.78;1.10;;;6.00;99.90;;;;;;4834547;29;20050;-63
2021/04/14 06:23:31;;;;;;;2.95;1.48;;;6.10;99.90;;;;;;4847425;29;20400;-62
2021/04/14 06:28:26;;;;;;;2.55;1.00;;;6.00;99.90;;;;;;4857088;29;20082;-62
2021/04/14 06:30:52;;;;;;;4.22;1.77;;;5.90;99.90;;;;;;4846537;29;20113;-62
2021/04/14 06:33:20;;;;;;;17.52;7.93;;;5.90;99.90;;;;;;4842366;29;20493;-63
2021/04/14 06:35:48;;;;;;;6.05;2.47;;;5.90;99.90;;;;;;4828800;29;20462;-63
2021/04/14 06:38:17;;;;;;;7.65;3.63;;;5.80;99.90;;;;;;4841138;29;20069;-62
2021/04/14 06:43:57;;;;;;;5.18;2.35;;;5.90;99.90;;;;;;4831425;29;20050;-62
2021/04/14 06:46:28;;;;;;;7.68;3.88;;;5.80;99.90;;;;;;4848110;29;20053;-62
2021/04/14 06:49:13;;;;;;;7.47;2.80;;;5.80;99.90;;;;;;4835939;29;20064;-62
2021/04/14 06:51:43;;;;;;;7.20;2.67;;;5.90;99.90;;;;;;4842071;29;20045;-62
2021/04/14 06:54:42;;;;;;;5.63;2.60;;;5.90;99.90;;;;;;4848132;29;20049;-62
2021/04/14 06:57:16;;;;;;;8.60;4.25;;;5.90;99.90;;;;;;4830753;29;20502;-62
2021/04/14 06:59:46;;;;;;;8.25;3.22;;;6.00;99.90;;;;;;4838180;29;20072;-62
2021/04/14 07:02:26;;;;;;;4.55;1.55;;;6.00;99.90;;;;;;4832738;29;20409;-62
2021/04/14 07:05:02;;;;;;;6.70;2.92;;;6.10;99.90;;;;;;4839851;29;20132;-63
2021/04/14 07:07:33;;;;;;;4.88;1.88;;;6.20;99.90;;;;;;4851974;29;20049;-62
2021/04/14 07:10:23;;;;;;;5.90;3.30;;;6.20;99.90;;;;;;4849757;29;20046;-62
2021/04/14 07:12:50;;;;;;;13.02;2.65;;;6.30;99.90;;;;;;4829293;29;20077;-62
2021/04/14 07:15:19;;;;;;;5.45;2.67;;;6.30;99.90;;;;;;4828308;29;20101;-62
2021/04/14 07:18:02;;;;;;;7.07;3.25;;;6.40;99.90;;;;;;4846547;29;20042;-62
2021/04/14 07:20:59;;;;;;;4.72;2.03;;;6.40;99.90;;;;;;4856863;29;20073;-62
2021/04/14 07:23:42;;;;;;;3.67;1.55;;;6.50;99.90;;;;;;4822013;29;20046;-63
2021/04/14 07:26:19;;;;;;;3.97;1.75;;;6.40;99.90;;;;;;4831000;29;20053;-63
2021/04/14 07:29:07;;;;;;;4.82;2.60;;;6.50;99.90;;;;;;4839927;29;20049;-63
2021/04/14 07:31:35;;;;;;;2.47;1.20;;;6.60;99.90;;;;;;4846126;29;20049;-62
2021/04/14 07:34:07;;;;;;;5.60;2.05;;;6.70;99.90;;;;;;4850623;29;20053;-63
2021/04/14 07:36:43;;;;;;;5.18;2.38;;;6.80;99.90;;;;;;4850678;29;20057;-62
2021/04/14 07:39:18;;;;;;;3.57;1.93;;;6.90;99.90;;;;;;4845673;29;20130;-63
2021/04/14 07:42:20;;;;;;;2.47;1.13;;;6.90;99.90;;;;;;4842216;29;20070;-62
2021/04/14 07:45:06;;;;;;;2.45;1.00;;;7.00;99.90;;;;;;4847765;29;20102;-63
2021/04/14 07:47:35;;;;;;;4.13;1.90;;;7.20;99.90;;;;;;4844127;29;20105;-63
2021/04/14 07:50:02;;;;;;;6.38;2.97;;;7.10;99.90;;;;;;4845813;29;20046;-63
2021/04/14 07:52:34;;;;;;;2.45;1.50;;;7.10;99.90;;;;;;4845445;29;20050;-63
2021/04/14 07:55:04;;;;;;;5.85;2.88;;;7.20;99.90;;;;;;4857759;29;20140;-63
2021/04/14 07:57:33;;;;;;;2.60;1.02;;;7.10;99.90;;;;;;4845697;29;20057;-63
2021/04/14 08:00:16;;;;;;;4.22;2.30;;;7.10;99.90;;;;;;4830658;29;20509;-62
2021/04/14 08:02:43;;;;;;;3.80;2.42;;;7.20;99.90;;;;;;4843600;29;20046;-62
2021/04/14 08:05:33;;;;;;;2.33;0.80;;;7.20;99.90;;;;;;4836456;29;20156;-62
2021/04/14 08:07:59;;;;;;;2.20;0.60;;;7.20;99.90;;;;;;4850760;29;20412;-62
2021/04/14 08:10:29;;;;;;;2.30;1.15;;;7.30;99.90;;;;;;4832196;29;20138;-62
2021/04/14 08:13:04;;;;;;;3.67;1.73;;;7.40;99.90;;;;;;4847368;29;20545;-62
2021/04/14 08:15:36;;;;;;;4.10;1.40;;;7.50;99.90;;;;;;4847232;29;20058;-63
2021/04/14 08:18:15;;;;;;;2.60;1.15;;;7.60;99.90;;;;;;4828986;29;20058;-62
2021/04/14 08:20:45;;;;;;;3.25;1.80;;;7.60;99.90;;;;;;4848728;29;20429;-63
2021/04/14 08:23:24;;;;;;;1.73;0.63;;;7.70;99.90;;;;;;4850858;29;20068;-62
2021/04/14 08:25:54;;;;;;;1.35;0.52;;;7.70;99.90;;;;;;4841492;29;20046;-61
2021/04/14 08:28:33;;;;;;;1.65;0.55;;;7.70;99.90;;;;;;4832466;29;20600;-63
2021/04/14 08:31:18;;;;;;;1.15;0.60;;;7.70;99.90;;;;;;4850559;29;20042;-63
2021/04/14 08:33:44;;;;;;;4.43;1.40;;;7.70;99.90;;;;;;4839276;29;20690;-63
2021/04/14 08:36:23;;;;;;;4.95;2.08;;;7.70;99.90;;;;;;4846652;29;20054;-62
2021/04/14 08:38:50;;;;;;;3.45;1.85;;;7.60;99.80;;;;;;4848256;29;20758;-63
2021/04/14 08:41:28;;;;;;;2.05;0.93;;;7.50;99.90;;;;;;4832489;29;20394;-64
2021/04/14 08:44:06;;;;;;;2.80;1.48;;;7.50;99.90;;;;;;4832954;29;20060;-62
2021/04/14 08:46:38;;;;;;;3.53;1.00;;;7.50;99.90;;;;;;4832134;29;20770;-64
2021/04/14 08:49:13;;;;;;;3.40;1.30;;;7.60;99.90;;;;;;4848877;29;20056;-63
2021/04/14 08:51:43;;;;;;;3.88;1.27;;;7.60;99.90;;;;;;4845392;29;20062;-63
2021/04/14 08:54:18;;;;;;;3.78;1.80;;;7.50;99.90;;;;;;4831392;29;20061;-63
2021/04/14 08:56:45;;;;;;;3.78;1.48;;;7.40;99.90;;;;;;4838041;29;20064;-63
2021/04/14 08:59:13;;;;;;;1.98;0.95;;;7.50;99.90;;;;;;4834666;29;20050;-64
2021/04/14 09:01:40;;;;;;;5.07;1.92;;;7.50;99.90;;;;;;4838928;29;20404;-65
2021/04/14 09:04:09;;;;;;;2.80;1.58;;;7.50;99.90;;;;;;4832190;29;20050;-64
2021/04/14 09:06:39;;;;;;;3.05;1.23;;;7.60;99.90;;;;;;4830915;29;20061;-64
2021/04/14 09:09:10;;;;;;;3.22;1.60;;;7.70;99.90;;;;;;4845993;29;20120;-63
2021/04/14 09:11:38;;;;;;;2.05;0.80;;;7.70;99.90;;;;;;4833184;29;20518;-63
2021/04/14 09:14:19;;;;;;;3.22;0.75;;;7.70;99.90;;;;;;4830693;29;20455;-64
2021/04/14 09:17:02;;;;;;;2.90;1.40;;;7.80;99.20;;;;;;4829581;29;20050;-64
2021/04/14 09:19:48;;;;;;;1.85;0.82;;;7.90;98.50;;;;;;4830920;29;20061;-64
2021/04/14 09:22:17;;;;;;;4.15;2.38;;;7.90;99.50;;;;;;4821286;29;20050;-63
2021/04/14 09:24:48;;;;;;;1.35;0.55;;;7.90;98.50;;;;;;4829038;29;20046;-65
2021/04/14 09:27:36;;;;;;;2.13;0.95;;;7.90;98.70;;;;;;4825793;29;20050;-65
2021/04/14 09:30:15;;;;;;;7.88;0.50;;;7.90;97.70;;;;;;4829498;29;20050;-65
2021/04/14 09:32:48;;;;;;;1.85;0.65;;;8.00;97.20;;;;;;4825217;29;20524;-63
2021/04/14 09:35:29;;;;;;;2.10;0.70;;;8.10;97.10;;;;;;4825130;29;20049;-63
2021/04/14 09:38:28;;;;;;;2.00;0.90;;;8.20;96.40;;;;;;4831753;29;20472;-63
2021/04/14 09:41:29;;;;;;;1.63;0.73;;;8.20;96.10;;;;;;4831197;29;20046;-62
2021/04/14 09:44:14;;;;;;;4.53;1.42;;;8.20;96.10;;;;;;4824863;29;20048;-62
2021/04/14 09:47:30;;;;;;;2.13;0.60;;;8.20;95.70;;;;;;4816929;29;20054;-62
2021/04/14 09:50:00;;;;;;;2.88;1.40;;;8.10;97.00;;;;;;4822875;29;20050;-62
2021/04/14 09:52:46;;;;;;;1.05;0.63;;;8.10;97.80;;;;;;4828958;29;20144;-62
2021/04/14 09:55:47;;;;;;;1.85;0.80;;;8.20;96.20;;;;;;4833467;29;20054;-62
2021/04/14 09:58:22;;;;;;;1.83;0.43;;;8.30;96.00;;;;;;4830062;29;20082;-62
2021/04/14 10:00:54;;;;;;;3.05;0.85;;;8.30;95.60;;;;;;4836313;29;20042;-62
2021/04/14 10:03:30;;;;;;;2.03;0.68;;;8.30;93.90;;;;;;4817675;29;20406;-62
2021/04/14 10:06:10;;;;;;;1.33;0.40;;;8.30;94.40;;;;;;4829514;29;20050;-62
2021/04/14 10:08:39;;;;;;;2.28;0.52;;;8.40;94.20;;;;;;4828086;29;20046;-62
2021/04/14 10:11:06;;;;;;;1.02;0.52;;;8.30;93.90;;;;;;4834904;29;20145;-63
2021/04/14 10:13:33;;;;;;;1.20;0.30;;;8.40;93.30;;;;;;4841090;29;20057;-63
2021/04/14 10:16:01;;;;;;;1.27;0.50;;;8.40;92.90;;;;;;4834872;29;20078;-62
2021/04/14 10:18:36;;;;;;;0.88;0.20;;;8.30;93.60;;;;;;4835383;29;20048;-61
2021/04/14 10:21:18;;;;;;;2.28;0.60;;;8.30;94.00;;;;;;4851196;29;20156;-62
2021/04/14 10:23:45;;;;;;;2.13;0.70;;;8.30;93.50;;;;;;4831444;29;20561;-63
2021/04/14 10:26:13;;;;;;;1.23;0.52;;;8.30;93.60;;;;;;4844971;29;20046;-62
2021/04/14 10:28:43;;;;;;;1.30;0.22;;;8.30;93.30;;;;;;4830824;29;20136;-62
2021/04/14 10:31:20;;;;;;;1.98;0.60;;;8.40;93.20;;;;;;4826878;29;20062;-62
2021/04/14 10:33:47;;;;;;;0.90;0.35;;;8.40;91.80;;;;;;4845898;29;20061;-63
2021/04/14 10:36:30;;;;;;;0.90;0.28;;;8.40;92.60;;;;;;4831220;29;20057;-63
2021/04/14 10:39:11;;;;;;;2.72;0.50;;;8.50;92.40;;;;;;4829832;29;20057;-62
2021/04/14 10:41:39;;;;;;;2.25;0.55;;;8.50;92.00;;;;;;4830235;29;20064;-63
2021/04/14 10:44:35;;;;;;;2.08;0.63;;;8.40;92.00;;;;;;4825033;29;20054;-62
2021/04/14 10:47:10;;;;;;;2.30;0.40;;;8.50;92.60;;;;;;4825687;29;20164;-62
2021/04/14 10:49:37;;;;;;;1.17;0.35;;;8.50;92.40;;;;;;4840013;29;20047;-62
2021/04/14 10:52:10;;;;;;;1.25;0.43;;;8.50;91.90;;;;;;4846960;29;20082;-63
2021/04/14 10:54:42;;;;;;;1.45;0.50;;;8.60;92.30;;;;;;4841581;29;20049;-63
2021/04/14 10:57:14;;;;;;;1.90;0.63;;;8.60;91.40;;;;;;4848561;29;20061;-62
2021/04/14 10:59:41;;;;;;;4.07;0.55;;;8.60;91.20;;;;;;4817919;29;20561;-62
2021/04/14 11:02:22;;;;;;;0.63;0.20;;;8.70;90.50;;;;;;4846076;29;20045;-63
2021/04/14 11:04:52;;;;;;;2.42;0.30;;;8.70;90.40;;;;;;4844378;29;20045;-63
2021/04/14 11:07:24;;;;;;;0.88;0.45;;;8.80;90.20;;;;;;4846810;29;20037;-63
2021/04/14 11:09:56;;;;;;;1.20;0.30;;;8.90;90.40;;;;;;4845079;29;20434;-63
2021/04/14 11:12:26;;;;;;;1.10;0.32;;;8.90;89.70;;;;;;4842163;29;20053;-63
2021/04/14 11:15:00;;;;;;;3.55;1.30;;;9.00;86.90;;;;;;4829676;29;20397;-63
2021/04/14 11:17:32;;;;;;;1.65;0.47;;;9.00;90.80;;;;;;4846227;29;20057;-62
2021/04/14 11:20:05;;;;;;;2.17;0.63;;;9.10;90.30;;;;;;4839854;29;20398;-62
2021/04/14 11:22:53;;;;;;;2.72;0.40;;;9.10;85.50;;;;;;4847381;29;20076;-62
2021/04/14 11:25:33;;;;;;;1.77;0.40;;;9.20;88.40;;;;;;4841310;29;20065;-62
2021/04/14 11:28:07;;;;;;;2.17;0.80;;;9.30;87.50;;;;;;4839298;29;20442;-63
2021/04/14 11:30:57;;;;;;;1.08;0.20;;;9.30;83.60;;;;;;4834791;29;20057;-62
2021/04/14 11:33:43;;;;;;;1.52;0.70;;;9.40;87.90;;;;;;4850703;29;20477;-63
2021/04/14 11:36:28;;;;;;;1.25;0.30;;;9.50;83.20;;;;;;4844004;29;20056;-63
2021/04/14 11:39:18;;;;;;;0.90;0.35;;;9.60;87.50;;;;;;4842685;29;20042;-63
2021/04/14 11:41:47;;;;;;;4.05;0.50;;;9.70;85.80;;;;;;4840527;29;20054;-62
2021/04/14 11:44:25;;;;;;;0.70;0.30;;;9.90;86.00;;;;;;4825015;29;20049;-63
2021/04/14 11:46:59;;;;;;;0.93;0.40;;;10.00;83.20;;;;;;4814798;29;20406;-63
2021/04/14 11:49:41;;;;;;;2.75;0.35;;;10.10;82.30;;;;;;4829044;29;20101;-63
2021/04/14 11:52:21;;;;;;;1.10;0.35;;;10.10;78.20;;;;;;4840241;29;20053;-63
2021/04/14 11:54:50;;;;;;;1.58;0.40;;;10.20;79.10;;;;;;4836548;29;20058;-62
2021/04/14 11:57:31;;;;;;;2.67;0.60;;;10.30;78.40;;;;;;4827100;29;20387;-62
2021/04/14 12:00:19;;;;;;;2.63;0.88;;;10.30;75.70;;;;;;4847594;29;20533;-62
2021/04/14 12:02:48;;;;;;;1.60;1.02;;;10.20;76.20;;;;;;4857737;29;20056;-62
2021/04/14 12:05:14;;;;;;;1.92;1.15;;;10.20;75.40;;;;;;4844216;29;20049;-62
2021/04/14 12:07:42;;;;;;;4.75;1.17;;;10.10;75.80;;;;;;4827819;29;20052;-63
2021/04/14 12:10:10;;;;;;;1.63;0.70;;;10.10;76.00;;;;;;4841026;29;20042;-63
2021/04/14 12:12:36;;;;;;;2.80;0.57;;;10.00;75.60;;;;;;4835971;29;20049;-62
2021/04/14 12:15:05;;;;;;;2.80;1.23;;;10.10;81.40;;;;;;4833210;29;20054;-60
2021/04/14 12:17:31;;;;;;;2.40;0.60;;;10.20;77.00;;;;;;4844695;29;20077;-63
2021/04/14 12:19:58;;;;;;;1.42;0.77;;;10.10;78.00;;;;;;4835690;29;20069;-63
2021/04/14 12:22:24;;;;;;;2.80;1.35;;;10.10;79.20;;;;;;4850934;29;20492;-63
2021/04/14 12:24:51;;;;;;;4.55;2.60;;;10.10;79.70;;;;;;4832923;29;20042;-63
2021/04/14 12:27:22;;;;;;;4.13;1.60;;;10.00;78.90;;;;;;4841211;29;20050;-65
2021/04/14 12:29:49;;;;;;;6.82;0.70;;;9.80;78.90;;;;;;4851915;29;20048;-65
2021/04/14 12:32:16;;;;;;;3.28;0.80;;;9.70;79.70;;;;;;4848815;29;20381;-64
2021/04/14 12:34:42;;;;;;;0.68;0.28;;;9.50;85.90;;;;;;4819276;29;20060;-64
2021/04/14 12:37:29;;;;;;;2.42;0.30;;;9.50;88.30;;;;;;4850847;29;20506;-63
2021/04/14 12:39:55;;;;;;;2.15;1.10;;;9.50;89.30;;;;;;4838836;29;20522;-64
2021/04/14 12:42:28;;;;;;;2.40;1.23;;;9.40;92.20;;;;;;4799135;29;20079;-63
2021/04/14 12:44:55;;;;;;;1.80;0.77;;;9.50;92.70;;;;;;4837699;29;20065;-64
2021/04/14 12:47:25;;;;;;;6.72;0.70;;;9.40;94.10;;;;;;4822490;29;20056;-64
2021/04/14 12:49:53;;;;;;;2.53;0.85;;;9.30;93.50;;;;;;4835675;29;20058;-64
2021/04/14 12:52:29;;;;;;;1.65;0.45;;;9.10;94.90;;;;;;4834268;29;20076;-64
2021/04/14 12:54:57;;;;;;;1.45;0.60;;;9.10;93.70;;;;;;4831055;29;20041;-63
2021/04/14 12:57:30;;;;;;;3.88;1.08;;;9.10;94.10;;;;;;4840846;29;20794;-63
2021/04/14 13:00:14;;;;;;;2.47;1.17;;;9.10;96.80;;;;;;4852240;29;20057;-63
2021/04/14 13:03:15;;;;;;;1.90;0.80;;;9.10;98.20;;;;;;4852698;29;20084;-63
2021/04/14 13:05:48;;;;;;;1.17;0.38;;;9.10;96.00;;;;;;4760891;30;20082;-64
2021/04/14 13:08:36;;;;;;;2.50;1.10;;;9.10;95.50;;;;;;4759794;30;20156;-64
2021/04/14 13:11:21;;;;;;;1.50;0.73;;;9.10;95.30;;;;;;4760081;30;20072;-64
2021/04/14 13:13:48;;;;;;;0.75;0.55;;;9.10;95.60;;;;;;4755571;30;20066;-64
2021/04/14 13:16:20;;;;;;;2.15;0.88;;;9.20;94.20;;;;;;4759338;30;20105;-63
2021/04/14 13:18:51;;;;;;;2.55;1.13;;;9.40;93.20;;;;;;4760574;30;20056;-63
2021/04/14 13:21:29;;;;;;;1.40;0.45;;;9.40;87.20;;;;;;4760446;30;20510;-65
2021/04/14 13:24:12;;;;;;;2.00;0.60;;;9.40;89.30;;;;;;4762199;30;20846;-64
2021/04/14 13:26:46;;;;;;;5.82;1.90;;;9.30;89.70;;;;;;4759343;30;20492;-64